PWSweather.com
Personal Weather Stations
Station Observations
CANDIOTINO
Barrio Candioti Norte, Santa FeAR 3000

Barrio Candioti NorteSanta FeAR 3000

Lat: -31.632778, Lon: -60.695556

Elevation: 69

Station Type: WH-1081

http://www.eltiempoensantafe.com.ar

Latest ConditionsUpdated 5:00:01 AM GMT-03:57 Sunday, Apr 23, 2017
Currently Today's Max Today's Min Today's Average
Temperature 59.0°F15.0°C 63.7°F17.6°C 58.8°F14.9°C 61.2°F16.2°C
Dew Point 54.5°F12.5°C 55.8°F13.2°C 52.4°F11.3°C 53.9°F12.2°C
Winds 2.2 mph NE3.5 kmh NE 3.1 mph N5.0 kmh N - 1.6 mph 2.6 kmh
Wind Gusts 6.0 mph9.7 kmh 6.0 mph9.7 kmh - -
Humidity 85% 87% 69% 77%
Pressure 29.97 in1014.9 mb 30.02 in1016.6 mb 29.97 in1014.9 mb -
Hour Temp Dew Point Humidity Winds Wind Gusts Pressure Precip Precip Rate Daily Precip Total
05:00 AM 59.0°F15.0°C 54.5°F12.5°C 85% 2.2 mph NE3.5 kmh NE 6.0 mph9.7 kmh 29.97 in1014.9 mb 0.00 in0.0 mm 0.00 in0.0 mm 0.00 in0.0 mm
04:45 AM 59.0°F15.0°C 54.8°F12.7°C 86% 1.6 mph ENE2.6 kmh ENE 4.5 mph7.2 kmh 29.97 in1014.9 mb 0.00 in0.0 mm 0.00 in0.0 mm 0.00 in0.0 mm
04:30 AM 58.8°F14.9°C 55.0°F12.8°C 87% 2.2 mph E3.5 kmh E 3.8 mph6.1 kmh 29.98 in1015.2 mb 0.00 in0.0 mm 0.00 in0.0 mm 0.00 in0.0 mm
04:15 AM 59.0°F15.0°C 54.8°F12.7°C 86% 0.7 mph ENE1.1 kmh ENE 3.8 mph6.1 kmh 29.98 in1015.2 mb 0.00 in0.0 mm 0.00 in0.0 mm 0.00 in0.0 mm
04:00 AM 59.0°F15.0°C 54.8°F12.7°C 86% 2.2 mph SE3.5 kmh SE 3.8 mph6.1 kmh 29.98 in1015.2 mb 0.00 in0.0 mm 0.00 in0.0 mm 0.00 in0.0 mm
03:45 AM 59.2°F15.1°C 54.7°F12.6°C 85% 1.6 mph ESE2.6 kmh ESE 5.4 mph8.7 kmh 29.99 in1015.6 mb 0.00 in0.0 mm 0.00 in0.0 mm 0.00 in0.0 mm
03:30 AM 59.5°F15.3°C 55.0°F12.8°C 85% 1.6 mph SE2.6 kmh SE 4.5 mph7.2 kmh 29.99 in1015.6 mb 0.00 in0.0 mm 0.00 in0.0 mm 0.00 in0.0 mm
03:15 AM 60.3°F15.7°C 55.4°F13.0°C 84% 0.7 mph ESE1.1 kmh ESE 5.4 mph8.7 kmh 30.00 in1015.9 mb 0.00 in0.0 mm 0.00 in0.0 mm 0.00 in0.0 mm
03:00 AM 61.3°F16.3°C 55.8°F13.2°C 82% 3.1 mph E5.0 kmh E 5.4 mph8.7 kmh 30.00 in1015.9 mb 0.00 in0.0 mm 0.00 in0.0 mm 0.00 in0.0 mm
02:45 AM 61.5°F16.4°C 53.5°F11.9°C 75% 0.7 mph E1.1 kmh E 3.1 mph5.0 kmh 30.00 in1015.9 mb 0.00 in0.0 mm 0.00 in0.0 mm 0.00 in0.0 mm
02:30 AM 61.9°F16.6°C 52.8°F11.6°C 72% Calm Calm 4.5 mph7.2 kmh 30.00 in1015.9 mb 0.00 in0.0 mm 0.00 in0.0 mm 0.00 in0.0 mm
02:15 AM 61.5°F16.4°C 52.4°F11.3°C 72% 0.7 mph ESE1.1 kmh ESE 2.2 mph3.5 kmh 30.00 in1015.9 mb 0.00 in0.0 mm 0.00 in0.0 mm 0.00 in0.0 mm
02:00 AM 61.9°F16.6°C 52.4°F11.3°C 71% 0.7 mph N1.1 kmh N 3.1 mph5.0 kmh 30.00 in1015.9 mb 0.00 in0.0 mm 0.00 in0.0 mm 0.00 in0.0 mm
01:45 AM 62.1°F16.7°C 52.6°F11.4°C 71% 2.2 mph N3.5 kmh N 3.1 mph5.0 kmh 30.00 in1015.9 mb 0.00 in0.0 mm 0.00 in0.0 mm 0.00 in0.0 mm
01:30 AM 62.4°F16.9°C 53.3°F11.8°C 72% 1.6 mph NNW2.6 kmh NNW 3.1 mph5.0 kmh 30.01 in1016.3 mb 0.00 in0.0 mm 0.00 in0.0 mm 0.00 in0.0 mm
01:15 AM 62.8°F17.1°C 53.3°F11.8°C 71% 1.6 mph N2.6 kmh N 3.8 mph6.1 kmh 30.01 in1016.3 mb 0.00 in0.0 mm 0.00 in0.0 mm 0.00 in0.0 mm
01:00 AM 63.0°F17.2°C 53.4°F11.9°C 71% 2.2 mph N3.5 kmh N 3.8 mph6.1 kmh 30.01 in1016.3 mb 0.00 in0.0 mm 0.00 in0.0 mm 0.00 in0.0 mm
12:45 AM 63.0°F17.2°C 53.8°F12.1°C 72% 3.1 mph N5.0 kmh N 3.8 mph6.1 kmh 30.01 in1016.3 mb 0.00 in0.0 mm 0.00 in0.0 mm 0.00 in0.0 mm
12:30 AM 62.8°F17.1°C 53.6°F12.0°C 72% 1.6 mph NNW2.6 kmh NNW 2.2 mph3.5 kmh 30.01 in1016.3 mb 0.00 in0.0 mm 0.00 in0.0 mm 0.00 in0.0 mm
12:15 AM 63.1°F17.3°C 53.6°F12.0°C 71% 1.6 mph NW2.6 kmh NW 3.1 mph5.0 kmh 30.02 in1016.6 mb 0.00 in0.0 mm 0.00 in0.0 mm 0.00 in0.0 mm
12:00 AM 63.7°F17.6°C 53.3°F11.8°C 69% 1.6 mph N2.6 kmh N 3.1 mph5.0 kmh 30.02 in1016.6 mb 0.00 in0.0 mm 0.00 in0.0 mm 0.00 in0.0 mm